x

Boston 16 Nm East Of Boston, Ma (44013) Wave Buoy

3:50am - Wed 3rd Sep 2014 All times are EDT. -4 hours from GMT.

  • Sig Wave height 1.3ft
  • Swell Direction
  • Peak Period 6s
  • Average Period 4s
  • Wind
    9mph, 11mph gusts
  • Sea Temp 67°f
  • 空気 Temp 70°f
  • Sea Pressure 1006.3mb
  • Boston 16 Nm East Of Boston, Ma
  • Boston 16 Nm East Of Boston, Ma

More Historic Weather Station data

Upgrade to MSW Pro to gain access to the past 30 days of data for over 8000 Wavebouys and Weather Stations around the globe.

Join Pro

Comparision Forecast

View Surf forecast
   
Wed 09/03 3:50am 1.3ft 6s 4s 9 11 mph 1006.3mb 67f 70f
2:50am 1.3ft 9s 4s 11 13 mph 1005.9mb 67f 72f
1:50am 1.3ft 7s 4s 13 16 mph 1006.1mb 67f 71f
12:50am 1.3ft 2s 3s 16
mph
1006.7mb 67f 72f
Tue 09/02 11:50pm 1ft 8s 3s 11 13 mph 1007.5mb 67f 71f
10:50pm 1ft 9s 3s 9 11 mph 1007.9mb 67f 71f
9:50pm 1.3ft 3s 4s 11
mph
1008.1mb 68f 71f
8:50pm 1ft 3s 3s 13
mph
1008.5mb 68f 74f
7:50pm 1.3ft 6s 4s 11 13 mph 1008.5mb 68f 71f
6:50pm 1.3ft 3s 3s 11 13 mph 1009.2mb 69f 70f
5:50pm 1.3ft 3s 3s 9 11 mph 1009.5mb 69f 72f
4:50pm 1.3ft 6s 3s 11 16 mph 1008.7mb 69f 77f
3:50pm 1.3ft 6s 4s 13 16 mph 1008.6mb 69f 77f
2:50pm 1.3ft 6s 4s 9 11 mph 1009.6mb 70f 74f
1:50pm 1ft 8s 4s 9
mph
1010.4mb 70f 73f
12:50pm 1ft 8s 5s 7
mph
1011.4mb 70f 72f
11:50am 1ft 8s 5s 9
mph
1012.1mb 69f 71f
10:50am 1ft 8s 5s 4 7 mph 1013.1mb 69f 72f
9:50am 1ft 7s 5s 4
mph
1013.3mb 68f 70f
8:50am 1ft 8s 5s 7 9 mph 1013mb 67f 69f
7:50am 1ft 8s 5s 4 7 mph 1012.9mb 67f 69f
6:50am 1ft 8s 5s 7
mph
1012.7mb 67f 68f
5:50am 1ft 13s 5s 9
mph
1012.2mb 67f 68f
4:50am 1ft 10s 5s 4 7 mph 1012.1mb 67f 69f
3:50am 1.3ft 9s 5s 7
mph
1012.3mb 67f 69f
2:50am 1ft 9s 5s 4 7 mph 1012.9mb 67f 69f
1:50am 1ft 8s 6s 4 7 mph 1013.5mb 67f 70f
12:50am 1ft 9s 6s 7 9 mph 1013.8mb 67f 70f
Mon 09/01 11:50pm 1ft 10s 6s 9
mph
1013.7mb 67f 71f
10:50pm 1ft 9s 6s 9
mph
1014mb 67f 71f
9:50pm 1ft 9s 5s 9
mph
1013.9mb 68f 71f
8:50pm 1ft 11s 5s 9
mph
1013.8mb 68f 71f
7:50pm 1ft 10s 4s 9 11 mph 1013.2mb 69f 72f
6:50pm 1.3ft 8s 4s 7
mph
1012.9mb 69f 71f
5:50pm 1ft 10s 5s 7
mph
1013mb 69f 72f
4:50pm 1.3ft 10s 5s 9 11 mph 1013mb 69f 72f
3:50pm 1ft 8s 5s 11
mph
1013.2mb 70f 72f
2:50pm 1.3ft 9s 5s 9
mph
1013.8mb 71f 72f
1:50pm 1ft 9s 5s 9
mph
1014.2mb 71f 72f
12:50pm 1.3ft 10s 5s 7
mph
1014.5mb 71f 73f
11:50am 1.3ft 9s 6s 4
mph
1014.9mb 68f 73f
10:50am 1.3ft 9s 6s 4
mph
1015.2mb 68f 71f
9:50am 1.3ft 8s 6s 4
mph
1015.4mb 68f 70f
8:50am 1ft 10s 5s 7
mph
1015.5mb 67f 69f
7:50am 1.3ft 9s 6s 7
mph
1015.6mb 67f 69f
6:50am 1ft 10s 5s 7 9 mph 1015.2mb 67f 69f
5:50am 1.3ft 10s 5s 9
mph
1014.9mb 67f 69f
4:50am 1.3ft 8s 5s 9 11 mph 1014.2mb 67f 69f
3:50am 1.3ft 9s 5s 9 11 mph 1014.1mb 67f 70f
2:50am 1.3ft 10s 5s 9
mph
1014mb 67f 69f
1:50am 1.3ft 8s 5s 9
mph
1014.1mb 67f 69f
12:50am 1.3ft 8s 5s 9 11 mph 1014.5mb 67f 70f
Sun 08/31 11:50pm 1.3ft 8s 5s 9 11 mph 1014.4mb 67f 70f
10:50pm 1.6ft 9s 5s 9
mph
1014.6mb 67f 70f
9:50pm 1.6ft 9s 4s 9 11 mph 1015mb 68f 70f
8:50pm 1.6ft 9s 4s 11 13 mph 1015.2mb 68f 71f
7:50pm 1.6ft 10s 5s 13 16 mph 1014.8mb 68f 71f
6:50pm 1.6ft 8s 5s 11 13 mph 1014.7mb 68f 73f
5:50pm 1.6ft 10s 4s 7 9 mph 1014.9mb 68f 73f
4:50pm 2ft 9s 4s 7
mph
1014.8mb 68f 73f
3:50pm 2ft 9s 4s 9
mph
1015.1mb 68f 73f
2:50pm 2ft 8s 4s 11 13 mph 1015.6mb 68f 74f
1:50pm 2ft 9s 4s 4 7 mph 1016.2mb 68f 73f
12:50pm 2.5ft 9s 4s 11
mph
1016.6mb 67f 74f
11:50am 2.5ft 9s 5s 9 11 mph 1017.4mb 67f 73f
10:50am 2ft 9s 5s 9 11 mph 1017.9mb 67f 71f
9:50am 2.5ft 9s 5s 9 11 mph 1018.4mb 67f 70f
8:50am 2.5ft 10s 4s 13
mph
1018.6mb 67f 69f
7:50am 2.5ft 9s 4s 16 18 mph 1018.7mb 67f 69f
6:50am 2.5ft 10s 5s 13 18 mph 1018.8mb 67f 69f
5:50am 2.5ft 10s 4s 16 18 mph 1018.9mb 67f 68f
4:50am 2.5ft 8s 4s 13 16 mph 1019.1mb 67f 68f
3:50am 2.5ft 8s 4s 16 18 mph 1019.3mb 67f 67f
2:50am 2.5ft 8s 4s 16 20 mph 1019.5mb 67f 66f
1:50am 2.5ft 8s 4s 16 18 mph 1020.1mb 67f 66f
12:50am 2.5ft 8s 4s 16 18 mph 1020.8mb 67f 66f
Sat 08/30 11:50pm 2.5ft 9s 4s 13 16 mph 1021.1mb 67f 66f
10:50pm 2.5ft 9s 4s 16 18 mph 1021.4mb 67f 66f
9:50pm 2.5ft 9s 4s 13 16 mph 1021.7mb 67f 66f
8:50pm 2.5ft 4s 4s 16 18 mph 1021.7mb 67f 67f
7:50pm 2.5ft 4s 4s 20 22 mph 1021.1mb 67f 68f
6:50pm 2.5ft 4s 4s 16 18 mph 1021.3mb 68f 70f
5:50pm 2.5ft 4s 4s 13 16 mph 1021.4mb 67f 71f
4:50pm 2.5ft 4s 4s 13 16 mph 1021.8mb 67f 70f
3:50pm 2.5ft 4s 4s 18 22 mph 1022.1mb 67f 68f
2:50pm 2.5ft 4s 4s 18 22 mph 1022.9mb 67f 66f
1:50pm 2.5ft 3s 4s 18 22 mph 1024mb 67f 65f
12:50pm 2.5ft 3s 4s 16 20 mph 1024.8mb 67f 65f
11:50am 2ft 10s 4s 16 18 mph 1025.6mb 67f 64f
10:50am 2ft 10s 4s 13 16 mph 1026.1mb 67f 64f
9:50am 2ft 10s 4s 13 16 mph 1026.2mb 67f 63f